Austin, TX (78716)

10:34 AM CDT on August 30, 2016 (GMT -0500)
River Hills | | Change Station

Elev 735 ft 30.33 °N, 97.85 °W | Updated 8 minutes ago

Mostly Cloudy
Mostly Cloudy
77.7 °F
Feels Like 80 °F
N
0.0
Wind Variable Wind from ESE

Today
High -- | Low -- °F
--% Chance of Precip.
Yesterday
High -- | Low -- °F
Precip. -- in
Pressure 30.01 in
Visibility 10.0 miles
Clouds Few 1400 ft
Scattered Clouds 6000 ft
Mostly Cloudy 11000 ft
Heat Index 80 °F
Dew Point 73 °F
Humidity 86%
Rainfall 0.00 in
Snow Depth Not available.
7:07 AM 7:55 PM
Waning Crescent, 3% visible
METAR KATT 301451Z AUTO 02006KT 10SM FEW014 SCT060 BKN110 27/22 A3004 RMK AO2 SLP160 T02670222 53008
Pressure 30.01 in
Visibility 10.0 miles
Clouds Few 1400 ft
Scattered Clouds 6000 ft
Mostly Cloudy 11000 ft
Heat Index 80 °F
Dew Point 73 °F
Humidity 86%
Rainfall 0.00 in
Snow Depth Not available.
7:07 AM 7:55 PM
Waning Crescent, 3% visible
METAR KATT 301451Z AUTO 02006KT 10SM FEW014 SCT060 BKN110 27/22 A3004 RMK AO2 SLP160 T02670222 53008

10-Day Weather Forecast

Almanac

Astronomy

Aug. 30, 2016 Rise Set
Actual Time
Civil Twilight
Nautical Twilight
Astronomical Twilight
Moon
Length of Visible Light
Length of Day
Tomorrow will be .
, % of the Moon is Illuminated

Today's Extremes

State Highs State Lows

Community

WunderPhotos

Upload Photos

1,935,852 photos uploaded!

WunderBlog® & News

Nearby

Air Quality

  Air Quality AQ Index Pollutant
Not available.

Snow Depth

Station Depth Elevation

Earthquake Activity

City Distance Mag. Time & Date
Minimum magnitude displayed is 2.5.

Coastal Water Temperatures

Place Temperature

Stations

Nearby Weather Stations

Station Location Temp. Windchill Dew Point Humidity Wind Precip. Elev Updated Type
                   

Watches & Warnings

There are currently no watches in effect.